Time;durP1;ratioP1;P1;durP2;ratioP2;P2;SDS_P1;SDS_P2;PMS_P1;PMS_P2;Temp;Humidity;BMP_temperature;BMP_pressure;BME280_temperature;BME280_humidity;BME280_pressure;Samples;Min_cycle;Max_cycle;Signal;HPM_P1;HPM_P2
2021/03/03 00:00:25;;;;;;;69.43;28.15;;;1.00;86.80;;;;;;5030731;28;20029;-70
2021/03/03 00:02:53;;;;;;;67.40;29.80;;;1.00;86.80;;;;;;5034030;28;20460;-70
2021/03/03 00:05:18;;;;;;;64.85;28.42;;;1.00;86.90;;;;;;5033883;28;20387;-70
2021/03/03 00:07:44;;;;;;;59.15;26.83;;;0.90;87.10;;;;;;5015308;28;20037;-69
2021/03/03 00:10:10;;;;;;;67.82;28.77;;;0.90;87.30;;;;;;5033557;28;20045;-69
2021/03/03 00:12:36;;;;;;;64.50;27.58;;;0.90;87.40;;;;;;5033847;28;20083;-70
2021/03/03 00:15:02;;;;;;;70.85;30.83;;;0.80;87.50;;;;;;5033869;28;20025;-69
2021/03/03 00:17:27;;;;;;;66.10;27.23;;;0.80;87.60;;;;;;5033041;28;20037;-69
2021/03/03 00:19:53;;;;;;;64.38;27.42;;;0.80;87.40;;;;;;5033726;28;20025;-70
2021/03/03 00:22:19;;;;;;;63.40;27.48;;;0.90;87.50;;;;;;5015994;28;20063;-69
2021/03/03 00:24:44;;;;;;;59.33;25.98;;;0.90;87.30;;;;;;5033366;28;20457;-69
2021/03/03 00:27:10;;;;;;;61.80;25.00;;;0.90;87.30;;;;;;5014758;28;20022;-69
2021/03/03 00:29:35;;;;;;;57.80;26.17;;;1.00;87.20;;;;;;5033068;28;20033;-70
2021/03/03 00:32:01;;;;;;;48.95;24.63;;;1.00;87.20;;;;;;5015536;28;20017;-70
2021/03/03 00:34:27;;;;;;;53.03;23.80;;;1.00;87.20;;;;;;5033742;28;20491;-69
2021/03/03 00:36:52;;;;;;;49.35;22.95;;;1.00;86.90;;;;;;5015379;28;20372;-70
2021/03/03 00:39:18;;;;;;;51.75;23.65;;;1.10;86.70;;;;;;5015340;28;20112;-69
2021/03/03 00:41:45;;;;;;;54.25;24.00;;;1.10;86.50;;;;;;5015470;28;20048;-70
2021/03/03 00:44:11;;;;;;;54.10;24.05;;;1.00;86.50;;;;;;5033414;28;20026;-70
2021/03/03 00:46:36;;;;;;;54.97;25.15;;;1.00;86.70;;;;;;5032363;28;20029;-69
2021/03/03 00:49:02;;;;;;;49.78;22.55;;;0.90;86.90;;;;;;5033063;28;20089;-70
2021/03/03 00:51:28;;;;;;;55.22;24.10;;;0.90;87.10;;;;;;5032851;28;20092;-69
2021/03/03 00:53:53;;;;;;;49.45;22.40;;;0.90;87.20;;;;;;5015377;28;20077;-68
2021/03/03 00:56:19;;;;;;;54.53;24.92;;;0.90;87.10;;;;;;5041865;23;20041;-67
2021/03/03 00:58:44;;;;;;;53.05;24.77;;;0.90;87.10;;;;;;5053191;28;20024;-67
2021/03/03 01:01:10;;;;;;;50.85;23.25;;;1.00;87.00;;;;;;5052719;28;20052;-67
2021/03/03 01:03:35;;;;;;;53.22;23.88;;;1.00;86.90;;;;;;5050001;28;20033;-67
2021/03/03 01:06:01;;;;;;;46.47;22.83;;;1.00;87.00;;;;;;5052015;28;20031;-67
2021/03/03 01:08:26;;;;;;;46.60;21.83;;;0.90;87.00;;;;;;5028169;28;20030;-67
2021/03/03 01:10:54;;;;;;;51.20;23.23;;;0.90;87.00;;;;;;5043135;28;20033;-67
2021/03/03 01:13:20;;;;;;;50.05;22.40;;;0.90;87.10;;;;;;5051403;28;20025;-67
2021/03/03 01:15:45;;;;;;;51.05;23.67;;;0.80;87.20;;;;;;5015047;28;20025;-67
2021/03/03 01:18:11;;;;;;;54.58;23.58;;;0.80;87.20;;;;;;5051893;28;20017;-68
2021/03/03 01:20:36;;;;;;;52.80;22.38;;;0.80;87.30;;;;;;5026936;28;20021;-67
2021/03/03 01:23:02;;;;;;;56.42;26.45;;;0.80;87.40;;;;;;5043773;28;20044;-68
2021/03/03 01:25:28;;;;;;;49.88;22.50;;;0.70;87.40;;;;;;5052470;28;20064;-67
2021/03/03 01:27:53;;;;;;;45.70;21.55;;;0.70;87.60;;;;;;5051711;28;20076;-67
2021/03/03 01:30:19;;;;;;;48.75;21.45;;;0.70;87.40;;;;;;5052331;28;20025;-66
2021/03/03 01:32:45;;;;;;;52.50;23.02;;;0.60;87.50;;;;;;5052159;28;20032;-67
2021/03/03 01:35:11;;;;;;;46.78;21.88;;;0.60;87.70;;;;;;5051913;28;20021;-67
2021/03/03 01:37:37;;;;;;;48.17;21.75;;;0.60;87.60;;;;;;5051208;28;20500;-67
2021/03/03 01:40:06;;;;;;;50.17;21.58;;;0.60;87.70;;;;;;5052084;28;20087;-67
2021/03/03 01:42:32;;;;;;;50.38;21.92;;;0.60;87.80;;;;;;5052162;28;20021;-67
2021/03/03 01:44:58;;;;;;;52.50;23.80;;;0.50;87.80;;;;;;5023572;28;20185;-67
2021/03/03 01:47:23;;;;;;;51.08;22.92;;;0.50;87.90;;;;;;5045466;28;20108;-67
2021/03/03 01:49:49;;;;;;;51.13;22.85;;;0.40;88.20;;;;;;5051983;28;20552;-68
2021/03/03 01:52:16;;;;;;;57.80;24.95;;;0.40;88.30;;;;;;5051800;28;20442;-67
2021/03/03 01:54:42;;;;;;;60.72;24.77;;;0.30;88.30;;;;;;5025332;28;20026;-67
2021/03/03 01:57:08;;;;;;;60.13;23.98;;;0.30;88.30;;;;;;5043027;28;20030;-67
2021/03/03 01:59:33;;;;;;;58.38;26.20;;;0.30;88.40;;;;;;5052103;28;20060;-67
2021/03/03 02:01:59;;;;;;;56.15;24.65;;;0.30;88.90;;;;;;5051597;28;20059;-67
2021/03/03 02:04:25;;;;;;;50.33;23.73;;;0.20;88.90;;;;;;5048591;28;20029;-67
2021/03/03 02:07:01;;;;;;;61.10;25.08;;;0.20;88.70;;;;;;5050769;28;20100;-69
2021/03/03 02:09:32;;;;;;;51.35;23.40;;;0.20;88.90;;;;;;5002580;28;20052;-67
2021/03/03 02:12:21;;;;;;;51.75;22.27;;;0.30;89.00;;;;;;5050576;28;20403;-67
2021/03/03 02:14:52;;;;;;;56.33;24.73;;;0.20;89.00;;;;;;5051645;28;20025;-67
2021/03/03 02:17:21;;;;;;;61.78;27.33;;;0.20;89.00;;;;;;5050420;28;20025;-67
2021/03/03 02:19:48;;;;;;;48.60;23.42;;;0.20;88.90;;;;;;5051156;28;20032;-66
2021/03/03 02:22:45;;;;;;;55.88;24.58;;;0.10;88.90;;;;;;5028668;28;20025;-67
2021/03/03 02:25:26;;;;;;;55.08;24.25;;;0.10;88.80;;;;;;5009523;28;20025;-67
2021/03/03 02:27:53;;;;;;;58.92;23.65;;;0.20;88.80;;;;;;5050496;28;20021;-67
2021/03/03 02:30:19;;;;;;;55.28;24.60;;;0.10;88.70;;;;;;5051214;28;20059;-67
2021/03/03 02:32:46;;;;;;;53.90;23.55;;;0.00;88.80;;;;;;5051105;28;20017;-67
2021/03/03 02:35:13;;;;;;;51.63;22.65;;;0.00;88.90;;;;;;5051038;28;20029;-68
2021/03/03 02:37:40;;;;;;;54.83;24.00;;;0.00;88.90;;;;;;5050187;28;20017;-68
2021/03/03 02:40:08;;;;;;;53.97;22.27;;;0.00;89.00;;;;;;5050985;28;20100;-67
2021/03/03 02:42:36;;;;;;;60.83;24.25;;;0.00;89.20;;;;;;5017376;28;20113;-67
2021/03/03 02:45:07;;;;;;;54.40;23.33;;;0.00;89.20;;;;;;5051110;28;20021;-67
2021/03/03 02:47:35;;;;;;;53.90;22.73;;;0.00;89.10;;;;;;5050608;28;20021;-68
2021/03/03 02:50:01;;;;;;;60.30;24.65;;;-3276.70;89.20;;;;;;5050963;28;20099;-67
2021/03/03 02:52:27;;;;;;;55.67;22.75;;;-3276.70;89.40;;;;;;5026556;28;20105;-67
2021/03/03 02:54:54;;;;;;;55.67;24.90;;;0.00;89.40;;;;;;5041311;28;20024;-67
2021/03/03 02:57:20;;;;;;;52.83;22.88;;;0.00;89.40;;;;;;5049910;28;20025;-67
2021/03/03 02:59:52;;;;;;;54.50;23.55;;;-3276.70;89.30;;;;;;5016785;28;20017;-67
2021/03/03 03:02:21;;;;;;;55.10;23.60;;;-3276.70;89.30;;;;;;5051029;28;20491;-67
2021/03/03 03:04:48;;;;;;;50.97;21.65;;;-3276.70;89.20;;;;;;5047495;28;20021;-67
2021/03/03 03:07:20;;;;;;;48.97;20.60;;;-3276.60;89.30;;;;;;5049945;28;20448;-68
2021/03/03 03:09:48;;;;;;;50.90;22.17;;;-3276.70;89.30;;;;;;5050786;28;20151;-68
2021/03/03 03:12:16;;;;;;;53.28;21.83;;;-3276.70;89.10;;;;;;5028018;28;20033;-67
2021/03/03 03:14:46;;;;;;;56.28;23.48;;;-3276.70;89.20;;;;;;5039678;28;20032;-67
2021/03/03 03:17:13;;;;;;;51.67;22.93;;;-3276.70;89.20;;;;;;5045922;28;20395;-67
2021/03/03 03:19:42;;;;;;;52.55;21.70;;;-3276.70;89.30;;;;;;5050496;28;20061;-67
2021/03/03 03:22:12;;;;;;;43.08;18.88;;;-3276.70;89.00;;;;;;5028741;28;20526;-68
2021/03/03 03:24:39;;;;;;;53.97;21.90;;;0.00;88.80;;;;;;5039126;28;20522;-68
2021/03/03 03:27:05;;;;;;;50.38;22.30;;;-3276.70;88.70;;;;;;5020639;28;20518;-67
2021/03/03 03:29:33;;;;;;;44.28;20.83;;;-3276.70;88.70;;;;;;5046162;28;20541;-68
2021/03/03 03:31:59;;;;;;;48.80;20.75;;;0.00;88.70;;;;;;5016207;28;20029;-68
2021/03/03 03:34:24;;;;;;;44.15;18.85;;;-3276.70;88.50;;;;;;5050587;28;20501;-68
2021/03/03 03:36:51;;;;;;;43.50;19.55;;;-3276.70;88.50;;;;;;5052464;28;20021;-68
2021/03/03 03:39:17;;;;;;;45.80;20.73;;;-3276.60;88.60;;;;;;5054508;28;20087;-68
2021/03/03 03:41:46;;;;;;;49.88;22.85;;;-3276.60;88.70;;;;;;5020281;28;20022;-68
2021/03/03 03:44:13;;;;;;;52.30;22.27;;;-3276.50;89.00;;;;;;5037952;28;20025;-69
2021/03/03 03:46:40;;;;;;;51.05;22.10;;;-3276.50;89.20;;;;;;5053947;28;20021;-69
2021/03/03 03:49:07;;;;;;;47.35;22.40;;;-3276.60;89.40;;;;;;5068159;28;20009;-66
2021/03/03 03:51:33;;;;;;;51.38;20.75;;;-3276.60;89.20;;;;;;5054316;28;20498;-66
2021/03/03 03:54:00;;;;;;;47.25;21.75;;;-3276.50;89.30;;;;;;5054702;28;20036;-66
2021/03/03 03:56:25;;;;;;;43.88;18.75;;;-3276.60;89.30;;;;;;5053416;28;20035;-67
2021/03/03 03:58:51;;;;;;;49.67;21.77;;;-3276.50;89.20;;;;;;5054161;28;20102;-67
2021/03/03 04:01:16;;;;;;;52.03;21.70;;;-3276.60;89.10;;;;;;5023042;28;20030;-67
2021/03/03 04:03:42;;;;;;;57.40;22.25;;;-3276.40;89.10;;;;;;5047609;28;20022;-67
2021/03/03 04:06:07;;;;;;;46.67;20.27;;;-3276.50;89.40;;;;;;5053186;28;20032;-66
2021/03/03 04:08:33;;;;;;;49.03;20.20;;;-3276.60;89.40;;;;;;5053851;28;20025;-67
2021/03/03 04:10:58;;;;;;;49.33;22.00;;;-3276.60;89.40;;;;;;5054226;28;20088;-68
2021/03/03 04:13:24;;;;;;;46.92;20.38;;;-3276.60;89.40;;;;;;5053685;28;20372;-67
2021/03/03 04:15:50;;;;;;;52.55;19.77;;;-3276.60;89.30;;;;;;5053498;28;20024;-67
2021/03/03 04:18:16;;;;;;;49.60;21.88;;;-3276.60;89.30;;;;;;5052962;28;20044;-66
2021/03/03 04:20:41;;;;;;;50.22;21.52;;;-3276.60;89.30;;;;;;5053549;28;20063;-66
2021/03/03 04:23:08;;;;;;;51.20;21.00;;;-3276.60;89.50;;;;;;5053758;28;20032;-66
2021/03/03 04:25:35;;;;;;;47.72;20.75;;;-3276.70;89.40;;;;;;5053521;28;20031;-66
2021/03/03 04:28:01;;;;;;;51.20;21.40;;;-3276.70;89.30;;;;;;5052771;28;20478;-66
2021/03/03 04:30:27;;;;;;;52.75;21.70;;;-3276.70;89.60;;;;;;5053326;28;20111;-66
2021/03/03 04:32:53;;;;;;;79.78;34.15;;;-3276.70;89.40;;;;;;5053398;28;20020;-67
2021/03/03 04:35:18;;;;;;;52.10;22.45;;;-3276.60;89.40;;;;;;5022041;28;20478;-67
2021/03/03 04:37:44;;;;;;;44.72;20.10;;;-3276.60;89.50;;;;;;5051063;28;20036;-67
2021/03/03 04:40:10;;;;;;;50.65;20.92;;;-3276.60;89.40;;;;;;5054329;28;20013;-67
2021/03/03 04:42:36;;;;;;;50.10;22.00;;;-3276.60;89.40;;;;;;5054320;28;20029;-68
2021/03/03 04:45:05;;;;;;;49.17;21.25;;;-3276.60;89.40;;;;;;5053628;28;20013;-68
2021/03/03 04:47:31;;;;;;;46.10;19.40;;;-3276.60;89.30;;;;;;5052016;28;20071;-68
2021/03/03 04:49:56;;;;;;;49.53;20.25;;;-3276.50;89.30;;;;;;5053157;28;20029;-68
2021/03/03 04:52:22;;;;;;;46.20;20.50;;;-3276.50;89.30;;;;;;5053318;28;19970;-69
2021/03/03 04:54:47;;;;;;;50.92;21.23;;;-3276.50;89.40;;;;;;5053990;28;20065;-68
2021/03/03 04:57:13;;;;;;;49.55;20.08;;;-3276.50;89.30;;;;;;5053099;28;20037;-68
2021/03/03 04:59:38;;;;;;;44.95;19.50;;;-3276.60;89.40;;;;;;5053391;28;20025;-67
2021/03/03 05:02:04;;;;;;;48.38;21.20;;;-3276.60;89.30;;;;;;5037478;28;20415;-67
2021/03/03 05:04:29;;;;;;;56.50;22.90;;;-3276.50;89.40;;;;;;5050304;28;20475;-67
2021/03/03 05:06:55;;;;;;;53.70;21.55;;;-3276.60;89.60;;;;;;5051937;28;20471;-66
2021/03/03 05:09:20;;;;;;;47.80;22.58;;;-3276.60;89.80;;;;;;5052650;28;20395;-67
2021/03/03 05:11:46;;;;;;;49.72;20.88;;;-3276.60;89.70;;;;;;5018306;28;20523;-67
2021/03/03 05:14:11;;;;;;;55.38;21.08;;;-3276.60;89.80;;;;;;5030313;28;20033;-67
2021/03/03 05:16:38;;;;;;;51.45;21.85;;;-3276.60;89.80;;;;;;5021447;28;20045;-67
2021/03/03 05:19:04;;;;;;;54.90;22.52;;;-3276.50;89.80;;;;;;5052665;28;20100;-68
2021/03/03 05:21:29;;;;;;;56.75;23.42;;;-3276.50;89.90;;;;;;5052380;28;20061;-67
2021/03/03 05:23:55;;;;;;;53.75;22.17;;;-3276.60;89.90;;;;;;5052552;28;20044;-67
2021/03/03 05:26:20;;;;;;;52.30;22.05;;;-3276.50;89.80;;;;;;5052274;28;20505;-67
2021/03/03 05:28:46;;;;;;;52.15;22.77;;;-3276.50;89.70;;;;;;5051879;28;20033;-67
2021/03/03 05:31:12;;;;;;;51.35;20.88;;;-3276.50;89.80;;;;;;5052323;28;20052;-66
2021/03/03 05:33:41;;;;;;;50.15;21.50;;;-3276.50;89.90;;;;;;5047936;28;20061;-67
2021/03/03 05:36:07;;;;;;;50.92;21.52;;;-3276.50;89.80;;;;;;5019707;28;20395;-66
2021/03/03 05:38:37;;;;;;;51.17;23.85;;;-3276.50;89.90;;;;;;5027392;28;20019;-68
2021/03/03 05:41:04;;;;;;;55.80;22.10;;;-3276.50;89.80;;;;;;5026991;28;20033;-68
2021/03/03 05:43:34;;;;;;;55.05;23.05;;;-3276.60;89.90;;;;;;5019202;28;20033;-68
2021/03/03 05:46:01;;;;;;;56.78;22.65;;;-3276.60;89.60;;;;;;5033256;28;20432;-67
2021/03/03 05:48:36;;;;;;;50.70;21.77;;;-3276.50;89.50;;;;;;5027257;28;20395;-67
2021/03/03 05:51:06;;;;;;;44.55;20.33;;;-3276.50;89.40;;;;;;5043407;28;20021;-67
2021/03/03 05:53:33;;;;;;;32.40;15.40;;;-3276.60;89.40;;;;;;5047459;28;20033;-68
2021/03/03 05:56:06;;;;;;;46.35;20.33;;;-3276.50;89.20;;;;;;5017017;28;20071;-68
2021/03/03 05:58:34;;;;;;;49.55;21.77;;;-3276.50;89.30;;;;;;5035690;28;20525;-67
2021/03/03 06:01:01;;;;;;;48.47;19.98;;;-3276.50;89.20;;;;;;5051615;28;20041;-67
2021/03/03 06:03:28;;;;;;;43.50;19.42;;;-3276.60;89.30;;;;;;5018936;28;20391;-67
2021/03/03 06:05:54;;;;;;;44.55;20.50;;;0.00;89.10;;;;;;5050202;28;20429;-66
2021/03/03 06:08:27;;;;;;;39.85;16.50;;;0.50;88.40;;;;;;5050668;28;20108;-66
2021/03/03 06:10:53;;;;;;;38.38;17.08;;;0.90;85.80;;;;;;5023235;28;20025;-67
2021/03/03 06:13:19;;;;;;;33.42;15.85;;;1.20;84.40;;;;;;5027489;28;20036;-66
2021/03/03 06:15:45;;;;;;;36.10;16.92;;;1.30;83.50;;;;;;5013983;28;20121;-66
2021/03/03 06:18:14;;;;;;;35.80;16.60;;;1.60;82.40;;;;;;5028916;28;20028;-67
2021/03/03 06:20:50;;;;;;;36.90;15.20;;;2.00;80.80;;;;;;5040063;28;20386;-67
2021/03/03 06:23:21;;;;;;;29.20;14.85;;;2.10;80.30;;;;;;5051544;28;20111;-68
2021/03/03 06:25:55;;;;;;;28.42;15.80;;;2.50;79.30;;;;;;5050974;28;20025;-67
2021/03/03 06:28:36;;;;;;;28.25;14.55;;;2.70;78.40;;;;;;5027053;28;20029;-67
2021/03/03 06:31:32;;;;;;;29.63;14.25;;;2.70;76.30;;;;;;5013600;28;20069;-67
2021/03/03 06:34:15;;;;;;;29.55;14.85;;;3.40;76.20;;;;;;5050185;28;20024;-68
2021/03/03 06:36:42;;;;;;;28.92;14.52;;;4.00;72.80;;;;;;5050419;28;20095;-68
2021/03/03 06:39:32;;;;;;;27.88;14.85;;;3.60;73.40;;;;;;5052036;28;20328;-68
2021/03/03 06:42:00;;;;;;;28.15;14.50;;;3.80;73.80;;;;;;5017088;28;20473;-68
2021/03/03 06:44:44;;;;;;;32.75;16.50;;;4.20;72.00;;;;;;5051110;28;20017;-69
2021/03/03 06:47:10;;;;;;;30.17;16.55;;;4.40;71.70;;;;;;5018568;28;20483;-68
2021/03/03 06:49:36;;;;;;;30.10;15.90;;;4.50;71.40;;;;;;5010733;28;20044;-68
2021/03/03 06:52:02;;;;;;;32.45;17.00;;;4.30;70.90;;;;;;5016380;28;20040;-67
2021/03/03 06:54:27;;;;;;;28.85;14.95;;;4.60;71.60;;;;;;5019767;28;20416;-66
2021/03/03 06:56:55;;;;;;;30.35;15.30;;;5.30;68.40;;;;;;5049756;28;20028;-67
2021/03/03 06:59:22;;;;;;;34.03;16.40;;;5.00;69.00;;;;;;5063445;22;20088;-69
2021/03/03 07:01:57;;;;;;;41.13;20.98;;;5.50;67.90;;;;;;5030481;28;20100;-69
2021/03/03 07:04:26;;;;;;;31.25;14.50;;;6.00;65.70;;;;;;5030809;28;20021;-71
2021/03/03 07:06:53;;;;;;;30.33;17.05;;;6.40;62.70;;;;;;5029877;28;20033;-70
2021/03/03 07:09:21;;;;;;;29.52;14.93;;;6.20;62.80;;;;;;5030624;28;20033;-70
2021/03/03 07:11:46;;;;;;;30.23;16.25;;;6.00;63.60;;;;;;5017376;28;20049;-70
2021/03/03 07:14:22;;;;;;;28.50;16.48;;;5.70;65.20;;;;;;5014958;28;20018;-69
2021/03/03 07:17:07;;;;;;;27.75;15.23;;;5.90;64.00;;;;;;5014158;28;20128;-71
2021/03/03 07:19:34;;;;;;;31.88;16.80;;;6.90;61.80;;;;;;5030651;28;20501;-69
2021/03/03 07:22:01;;;;;;;27.08;15.18;;;7.90;59.40;;;;;;5000838;28;20076;-69
2021/03/03 07:24:26;;;;;;;25.30;14.40;;;8.40;56.40;;;;;;5028233;28;20021;-71
2021/03/03 07:26:52;;;;;;;26.83;14.65;;;8.50;54.00;;;;;;5006520;28;20087;-72
2021/03/03 07:29:18;;;;;;;26.60;16.02;;;8.00;55.60;;;;;;5020584;28;20506;-71
2021/03/03 07:31:44;;;;;;;31.50;16.15;;;7.60;57.20;;;;;;5030759;28;20022;-71
2021/03/03 07:34:10;;;;;;;25.27;14.77;;;7.40;57.60;;;;;;5001099;28;20045;-72
2021/03/03 07:36:37;;;;;;;28.98;14.82;;;7.20;58.50;;;;;;5025904;28;20120;-69
2021/03/03 07:39:08;;;;;;;26.98;16.52;;;6.80;59.00;;;;;;5025851;28;20101;-72
2021/03/03 07:41:42;;;;;;;29.38;15.93;;;6.70;60.00;;;;;;5018566;28;20030;-70
2021/03/03 07:44:10;;;;;;;26.00;14.95;;;6.30;61.40;;;;;;5002673;28;20590;-69
2021/03/03 07:46:38;;;;;;;25.98;14.13;;;6.50;61.00;;;;;;5033422;28;20029;-72
2021/03/03 07:49:07;;;;;;;25.73;15.48;;;7.00;60.10;;;;;;5004352;28;20065;-71
2021/03/03 07:51:32;;;;;;;28.92;15.90;;;6.90;59.20;;;;;;5029599;28;20112;-71
2021/03/03 07:53:58;;;;;;;28.92;15.38;;;6.60;61.00;;;;;;5017416;28;20274;-69
2021/03/03 07:56:24;;;;;;;28.95;17.75;;;6.20;61.60;;;;;;5008686;28;20034;-70
2021/03/03 07:58:50;;;;;;;28.75;17.42;;;5.70;63.90;;;;;;5023761;28;20038;-68
2021/03/03 08:01:17;;;;;;;29.15;15.10;;;6.00;64.40;;;;;;5022999;28;20105;-68
2021/03/03 08:03:46;;;;;;;33.15;15.90;;;6.50;62.50;;;;;;5009720;28;20081;-69
2021/03/03 08:06:28;;;;;;;27.60;16.52;;;6.70;61.50;;;;;;5028715;28;20026;-67
2021/03/03 08:09:06;;;;;;;28.10;16.50;;;7.10;61.50;;;;;;5024298;28;20021;-69
2021/03/03 08:11:38;;;;;;;28.20;16.77;;;6.80;61.10;;;;;;5018561;28;20077;-72
2021/03/03 08:14:28;;;;;;;30.02;15.43;;;6.70;61.60;;;;;;5002950;28;20025;-72
2021/03/03 08:16:55;;;;;;;29.38;16.33;;;6.80;61.40;;;;;;5025503;28;20393;-73
2021/03/03 08:19:21;;;;;;;27.98;15.85;;;6.70;62.50;;;;;;5030383;28;20487;-67
2021/03/03 08:21:47;;;;;;;29.50;17.17;;;7.20;61.20;;;;;;5016716;28;20026;-68
2021/03/03 08:24:37;;;;;;;30.70;17.88;;;7.30;61.20;;;;;;5028866;28;20028;-71
2021/03/03 08:27:26;;;;;;;25.38;14.93;;;7.60;60.90;;;;;;5007732;28;20399;-70
2021/03/03 08:30:10;;;;;;;34.67;19.70;;;7.80;59.80;;;;;;5002619;28;20594;-69
2021/03/03 08:32:36;;;;;;;41.78;25.42;;;8.20;59.40;;;;;;5024040;28;20056;-69
2021/03/03 08:35:03;;;;;;;29.15;16.10;;;7.70;59.50;;;;;;5006591;28;20022;-71
2021/03/03 08:37:32;;;;;;;31.23;17.08;;;7.30;61.40;;;;;;5028408;28;20132;-71
2021/03/03 08:39:58;;;;;;;40.75;24.30;;;7.20;62.60;;;;;;4999438;28;20026;-69
2021/03/03 08:42:32;;;;;;;28.40;16.45;;;7.60;61.70;;;;;;5027085;28;20060;-71
2021/03/03 08:45:04;;;;;;;27.23;16.13;;;7.90;60.20;;;;;;4995675;28;20044;-71
2021/03/03 08:47:47;;;;;;;27.25;15.50;;;7.80;60.40;;;;;;5027517;28;20530;-71
2021/03/03 08:50:37;;;;;;;28.30;15.40;;;8.00;59.20;;;;;;5002720;28;20030;-70
2021/03/03 08:53:23;;;;;;;28.80;16.47;;;8.00;59.80;;;;;;5003627;28;20026;-73
2021/03/03 08:55:49;;;;;;;25.92;14.98;;;8.70;58.70;;;;;;5027040;28;20101;-73
2021/03/03 08:58:33;;;;;;;27.85;17.25;;;8.90;57.60;;;;;;5017077;28;20125;-68
2021/03/03 09:00:59;;;;;;;28.50;15.25;;;8.40;59.00;;;;;;5021714;28;20037;-67
2021/03/03 09:03:25;;;;;;;26.20;15.20;;;8.70;58.40;;;;;;5025777;28;20079;-69
2021/03/03 09:05:51;;;;;;;27.15;16.15;;;8.90;57.70;;;;;;5028909;28;20037;-73
2021/03/03 09:08:24;;;;;;;27.95;15.80;;;8.70;57.90;;;;;;4999560;28;20036;-71
2021/03/03 09:10:51;;;;;;;29.13;16.35;;;8.80;57.80;;;;;;5022681;28;20026;-70
2021/03/03 09:13:28;;;;;;;28.58;15.63;;;8.40;58.70;;;;;;5008500;28;20025;-71
2021/03/03 09:16:08;;;;;;;29.02;16.42;;;8.50;58.60;;;;;;5015835;28;20018;-72
2021/03/03 09:18:37;;;;;;;25.88;15.45;;;8.90;57.60;;;;;;5016835;28;20025;-73
2021/03/03 09:21:08;;;;;;;31.08;16.13;;;8.90;57.20;;;;;;5014415;28;20021;-72
2021/03/03 09:23:34;;;;;;;29.98;16.55;;;9.10;57.30;;;;;;5012501;28;20444;-70
2021/03/03 09:26:00;;;;;;;26.92;15.18;;;9.50;56.20;;;;;;5015543;28;20030;-69
2021/03/03 09:28:41;;;;;;;150.50;87.95;;;9.40;56.10;;;;;;5025034;28;20040;-70
2021/03/03 09:31:07;;;;;;;64.82;37.08;;;9.30;57.40;;;;;;5012677;28;20567;-70
2021/03/03 09:33:34;;;;;;;37.03;20.35;;;9.60;56.70;;;;;;5009254;28;20040;-70
2021/03/03 09:36:01;;;;;;;32.47;19.45;;;9.80;56.20;;;;;;5016253;28;20021;-70
2021/03/03 09:38:30;;;;;;;27.77;16.73;;;10.20;54.30;;;;;;5025589;28;20022;-70
2021/03/03 09:40:56;;;;;;;33.00;20.92;;;10.20;54.20;;;;;;5018654;28;20053;-71
2021/03/03 09:43:22;;;;;;;50.58;29.88;;;10.20;53.80;;;;;;5017570;28;20093;-71
2021/03/03 09:45:54;;;;;;;48.60;28.38;;;10.10;55.00;;;;;;5010415;28;20033;-70
2021/03/03 09:48:29;;;;;;;44.00;27.95;;;10.00;55.50;;;;;;5016745;28;20018;-71
2021/03/03 09:50:56;;;;;;;32.15;17.73;;;10.00;55.20;;;;;;5021432;28;20069;-69
2021/03/03 09:53:22;;;;;;;26.90;15.68;;;9.80;55.50;;;;;;5025840;28;20048;-71
2021/03/03 09:55:47;;;;;;;26.92;16.48;;;10.00;54.90;;;;;;5015152;28;20033;-71
2021/03/03 09:58:14;;;;;;;30.45;18.20;;;9.70;55.40;;;;;;5026179;28;20018;-70
2021/03/03 10:00:40;;;;;;;28.95;18.25;;;9.70;56.20;;;;;;5019769;28;20053;-72
2021/03/03 10:03:11;;;;;;;28.00;17.10;;;9.50;56.70;;;;;;5019754;28;20510;-70
2021/03/03 10:05:37;;;;;;;26.38;16.35;;;9.30;57.60;;;;;;5027818;28;20038;-70
2021/03/03 10:08:14;;;;;;;24.58;15.85;;;9.30;57.70;;;;;;5014179;28;20022;-70
2021/03/03 10:10:46;;;;;;;27.48;16.60;;;9.10;58.80;;;;;;5023123;28;20033;-71
2021/03/03 10:13:22;;;;;;;26.80;16.77;;;8.80;59.60;;;;;;5024477;28;20024;-73
2021/03/03 10:15:48;;;;;;;29.60;16.60;;;8.90;59.60;;;;;;4997264;28;20077;-71
2021/03/03 10:18:13;;;;;;;27.08;16.02;;;9.00;60.40;;;;;;5026075;28;20021;-71
2021/03/03 10:20:41;;;;;;;26.98;16.80;;;9.10;59.80;;;;;;5001782;28;20040;-69
2021/03/03 10:23:15;;;;;;;25.70;16.10;;;9.00;60.00;;;;;;5019239;28;20026;-70
2021/03/03 10:25:45;;;;;;;28.83;17.30;;;9.00;60.80;;;;;;5027644;28;20053;-69
2021/03/03 10:28:12;;;;;;;26.65;16.83;;;9.10;59.80;;;;;;5014816;28;20029;-69
2021/03/03 10:30:42;;;;;;;31.40;15.55;;;9.00;60.40;;;;;;5022913;28;20025;-72
2021/03/03 10:33:09;;;;;;;29.90;15.93;;;9.00;59.70;;;;;;5011441;28;20029;-69
2021/03/03 10:35:49;;;;;;;25.17;16.35;;;9.00;60.10;;;;;;5027132;28;20025;-67
2021/03/03 10:38:16;;;;;;;61.17;36.78;;;8.90;60.00;;;;;;5000524;28;20430;-67
2021/03/03 10:40:43;;;;;;;45.38;27.50;;;8.90;59.90;;;;;;5022319;28;20026;-68
2021/03/03 10:43:14;;;;;;;36.92;23.65;;;8.80;60.80;;;;;;5023357;28;20391;-68
2021/03/03 10:45:43;;;;;;;64.53;36.90;;;8.90;61.30;;;;;;5014250;28;20038;-67
2021/03/03 10:48:23;;;;;;;35.40;21.42;;;9.10;62.60;;;;;;5026041;28;20030;-69
2021/03/03 10:50:50;;;;;;;26.33;15.83;;;9.20;61.80;;;;;;5020692;28;20021;-69
2021/03/03 10:53:16;;;;;;;27.10;15.73;;;9.20;61.10;;;;;;4999535;28;20069;-70
2021/03/03 10:55:42;;;;;;;25.35;15.50;;;9.20;61.00;;;;;;5000081;28;20026;-79
2021/03/03 10:58:13;;;;;;;26.52;16.33;;;9.20;60.70;;;;;;5010014;28;20400;-69
2021/03/03 11:01:02;;;;;;;29.23;16.85;;;9.20;61.10;;;;;;5010434;28;20048;-67
2021/03/03 11:03:29;;;;;;;28.15;16.83;;;9.00;60.70;;;;;;5023842;28;20438;-66
2021/03/03 11:05:57;;;;;;;27.92;16.77;;;9.00;61.20;;;;;;5027159;28;20029;-67
2021/03/03 11:08:23;;;;;;;27.73;16.50;;;9.10;61.20;;;;;;5015215;28;20040;-67
2021/03/03 11:10:52;;;;;;;25.77;15.18;;;9.20;60.40;;;;;;5011974;28;20133;-67
2021/03/03 11:13:18;;;;;;;27.83;16.98;;;9.40;59.60;;;;;;5012113;28;20014;-67
2021/03/03 11:15:45;;;;;;;28.75;16.83;;;9.30;59.20;;;;;;5027641;28;20029;-68
2021/03/03 11:18:11;;;;;;;26.05;15.77;;;9.40;59.40;;;;;;5010797;28;20025;-70
2021/03/03 11:20:39;;;;;;;23.67;15.15;;;9.50;59.50;;;;;;5019143;28;20096;-70
2021/03/03 11:23:05;;;;;;;27.65;17.08;;;9.50;59.10;;;;;;5031365;28;20032;-70
2021/03/03 11:25:31;;;;;;;27.65;15.38;;;9.50;59.60;;;;;;5015997;28;20049;-67
2021/03/03 11:27:57;;;;;;;25.90;16.30;;;9.70;59.50;;;;;;5011946;28;20116;-67
2021/03/03 11:30:23;;;;;;;27.13;16.02;;;10.00;58.80;;;;;;5024485;28;20061;-67
2021/03/03 11:32:50;;;;;;;23.90;15.30;;;10.20;57.10;;;;;;5020034;28;20030;-70
2021/03/03 11:35:16;;;;;;;23.95;15.50;;;10.20;57.00;;;;;;5017022;28;20061;-70
2021/03/03 11:37:42;;;;;;;30.38;16.27;;;10.30;57.00;;;;;;5025988;28;20057;-70
2021/03/03 11:40:08;;;;;;;30.45;14.82;;;10.40;56.70;;;;;;5010706;28;20022;-69
2021/03/03 11:42:33;;;;;;;29.50;16.58;;;10.60;55.90;;;;;;5018310;28;20078;-69
2021/03/03 11:44:59;;;;;;;24.15;16.33;;;10.60;55.70;;;;;;5001646;28;20439;-69
2021/03/03 11:47:24;;;;;;;25.30;16.13;;;10.70;55.80;;;;;;5024281;28;20029;-69
2021/03/03 11:49:50;;;;;;;24.08;16.23;;;10.80;55.20;;;;;;5013989;28;20053;-70
2021/03/03 11:52:15;;;;;;;28.70;16.75;;;10.80;54.30;;;;;;5025183;28;20026;-73
2021/03/03 11:54:41;;;;;;;27.95;16.42;;;10.80;54.20;;;;;;5001488;28;20399;-68
2021/03/03 11:57:07;;;;;;;29.50;16.58;;;10.60;54.80;;;;;;5018502;28;20403;-69
2021/03/03 11:59:32;;;;;;;30.83;17.15;;;10.90;55.20;;;;;;5029341;28;20025;-69
2021/03/03 12:01:59;;;;;;;29.08;16.40;;;11.00;55.00;;;;;;5017410;28;20033;-71
2021/03/03 12:04:24;;;;;;;27.40;15.60;;;11.30;54.80;;;;;;5030470;28;20512;-72
2021/03/03 12:06:50;;;;;;;35.03;19.48;;;11.40;54.20;;;;;;5023386;28;20072;-73
2021/03/03 12:09:18;;;;;;;29.60;17.65;;;11.30;54.10;;;;;;5027594;28;20400;-70
2021/03/03 12:11:44;;;;;;;27.98;17.33;;;11.20;54.80;;;;;;4999523;28;20483;-70
2021/03/03 12:14:09;;;;;;;30.33;16.80;;;11.10;54.90;;;;;;5030026;28;20053;-67
2021/03/03 12:16:35;;;;;;;30.48;17.95;;;11.00;55.00;;;;;;5013194;28;20038;-70
2021/03/03 12:19:00;;;;;;;26.98;17.67;;;11.00;55.30;;;;;;5024878;28;20115;-67
2021/03/03 12:21:26;;;;;;;27.75;17.02;;;10.90;55.70;;;;;;5018262;28;20049;-67
2021/03/03 12:23:51;;;;;;;25.58;17.10;;;10.70;56.00;;;;;;5017766;28;20033;-69
2021/03/03 12:26:17;;;;;;;28.42;16.92;;;10.60;56.50;;;;;;5026256;28;20723;-68
2021/03/03 12:28:45;;;;;;;31.67;18.02;;;10.60;55.80;;;;;;5021230;28;20116;-68
2021/03/03 12:31:12;;;;;;;30.65;17.02;;;10.50;56.50;;;;;;5019190;28;20431;-68